Time;durP1;ratioP1;P1;durP2;ratioP2;P2;SDS_P1;SDS_P2;PMS_P1;PMS_P2;Temp;Humidity;BMP_temperature;BMP_pressure;BME280_temperature;BME280_humidity;BME280_pressure;Samples;Min_cycle;Max_cycle;Signal;HPM_P1;HPM_P2
2022/12/23 00:00:27;;;;;;;167.07;100.03;;;7.40;99.90;;;;;;4940516;29;20035;-90
2022/12/23 00:02:54;;;;;;;178.85;103.40;;;7.40;99.90;;;;;;4941030;29;20054;-91
2022/12/23 00:05:28;;;;;;;169.50;99.47;;;7.40;99.90;;;;;;4940233;29;20027;-91
2022/12/23 00:07:55;;;;;;;168.63;98.10;;;7.30;99.90;;;;;;4940190;29;20038;-92
2022/12/23 00:10:22;;;;;;;157.38;92.43;;;7.40;99.90;;;;;;4940234;29;20118;-91
2022/12/23 00:15:34;;;;;;;159.48;92.95;;;7.40;99.90;;;;;;4940388;29;20090;-92
2022/12/23 00:18:01;;;;;;;175.32;99.50;;;7.40;99.90;;;;;;4940368;29;20090;-91
2022/12/23 00:20:28;;;;;;;184.82;101.57;;;7.50;99.90;;;;;;4940061;29;20601;-91
2022/12/23 00:23:04;;;;;;;178.23;99.38;;;7.60;99.90;;;;;;4939811;28;20031;-91
2022/12/23 00:25:39;;;;;;;180.93;97.35;;;7.60;99.90;;;;;;4940041;29;20038;-90
2022/12/23 00:28:17;;;;;;;163.25;94.53;;;7.60;99.90;;;;;;4939994;29;20028;-90
2022/12/23 00:30:51;;;;;;;176.57;97.85;;;7.70;99.90;;;;;;4924087;29;20028;-90
2022/12/23 00:33:38;;;;;;;179.17;100.77;;;7.70;99.90;;;;;;4924491;29;20069;-92
2022/12/23 00:36:24;;;;;;;173.63;97.03;;;7.70;99.90;;;;;;4939931;29;20041;-91
2022/12/23 00:44:22;;;;;;;174.63;96.28;;;7.90;99.90;;;;;;4955935;29;20504;-92
2022/12/23 00:46:49;;;;;;;194.40;102.57;;;7.90;99.90;;;;;;4955549;29;20032;-91
2022/12/23 00:52:05;;;;;;;178.73;98.72;;;8.00;99.90;;;;;;4955504;29;20073;-90
2022/12/23 00:54:35;;;;;;;190.82;101.55;;;8.00;99.90;;;;;;4955536;29;20030;-92
2022/12/23 00:57:05;;;;;;;192.02;101.80;;;7.90;99.90;;;;;;4937155;29;20500;-91
2022/12/23 00:59:33;;;;;;;194.18;105.13;;;7.90;99.90;;;;;;4955583;29;20068;-91
2022/12/23 01:07:30;;;;;;;188.55;103.70;;;7.70;99.90;;;;;;4955468;29;20059;-91
2022/12/23 01:09:56;;;;;;;193.45;101.75;;;7.60;99.90;;;;;;4956109;29;20047;-90
2022/12/23 01:12:23;;;;;;;174.25;95.53;;;7.50;99.90;;;;;;4955485;29;20027;-91
2022/12/23 01:14:50;;;;;;;178.68;99.05;;;7.40;99.90;;;;;;4955358;29;20029;-92
2022/12/23 01:17:19;;;;;;;179.05;98.38;;;7.40;99.90;;;;;;4955164;29;20023;-90
2022/12/23 01:19:46;;;;;;;177.40;97.85;;;7.30;99.90;;;;;;4954901;29;20075;-91
2022/12/23 01:22:13;;;;;;;175.80;94.60;;;7.20;99.90;;;;;;4955069;29;20031;-92
2022/12/23 01:24:40;;;;;;;175.82;95.65;;;7.20;99.90;;;;;;4955258;29;20105;-92
2022/12/23 01:27:10;;;;;;;180.70;101.13;;;7.20;99.90;;;;;;4955300;29;20028;-91
2022/12/23 01:29:37;;;;;;;163.65;92.35;;;7.10;99.90;;;;;;4939509;29;20031;-92
2022/12/23 01:32:07;;;;;;;164.88;91.63;;;7.10;99.90;;;;;;4955062;29;20023;-92
2022/12/23 01:34:43;;;;;;;163.38;91.38;;;7.00;99.90;;;;;;4954961;29;20031;-91
2022/12/23 01:37:09;;;;;;;156.80;89.18;;;7.00;99.90;;;;;;4955460;29;20081;-94
2022/12/23 01:39:36;;;;;;;167.85;91.68;;;6.90;99.90;;;;;;4954934;29;20493;-91
2022/12/23 01:44:59;;;;;;;134.00;76.18;;;6.90;99.90;;;;;;4954972;29;20102;-91
2022/12/23 01:47:45;;;;;;;129.48;75.30;;;6.80;99.90;;;;;;4954779;29;20027;-93
2022/12/23 01:50:18;;;;;;;135.38;77.47;;;6.80;99.90;;;;;;4954701;29;20035;-93
2022/12/23 01:53:04;;;;;;;139.82;77.18;;;6.70;99.90;;;;;;4954849;29;20086;-91
2022/12/23 01:55:35;;;;;;;129.52;71.30;;;6.60;99.90;;;;;;4954821;28;20090;-92
2022/12/23 01:58:11;;;;;;;151.13;82.47;;;6.60;99.90;;;;;;4954897;29;20440;-92
2022/12/23 02:03:43;;;;;;;132.95;73.63;;;6.60;99.90;;;;;;4954671;29;20034;-90
2022/12/23 02:09:25;;;;;;;133.45;76.20;;;6.40;99.90;;;;;;4954728;29;20065;-90
2022/12/23 02:12:37;;;;;;;136.00;76.15;;;6.40;99.90;;;;;;4938605;29;20495;-92
2022/12/23 02:18:59;;;;;;;128.70;72.85;;;6.30;99.90;;;;;;4956458;28;20032;-92
2022/12/23 02:21:47;;;;;;;123.15;68.68;;;6.20;99.90;;;;;;4882104;29;20037;-91
2022/12/23 02:24:47;;;;;;;128.20;71.75;;;6.30;99.90;;;;;;4866330;29;20457;-92
2022/12/23 02:27:14;;;;;;;140.55;75.18;;;6.20;99.90;;;;;;4866313;29;20479;-91
2022/12/23 02:30:03;;;;;;;112.32;65.32;;;6.10;99.90;;;;;;4866305;29;20047;-91
2022/12/23 02:32:48;;;;;;;114.43;64.95;;;6.10;99.90;;;;;;4866167;29;20058;-90
2022/12/23 02:35:36;;;;;;;116.28;65.95;;;6.10;99.90;;;;;;4865874;29;20049;-91
2022/12/23 02:38:15;;;;;;;103.50;60.03;;;6.10;99.90;;;;;;4866162;29;20029;-93
2022/12/23 02:41:17;;;;;;;113.78;63.13;;;6.10;99.90;;;;;;4881663;29;20067;-92
2022/12/23 02:43:55;;;;;;;105.93;61.10;;;6.00;99.90;;;;;;4866200;29;20554;-92
2022/12/23 02:46:31;;;;;;;106.18;62.05;;;6.10;99.90;;;;;;4866592;29;20039;-89
2022/12/23 02:49:36;;;;;;;109.72;61.55;;;6.00;99.90;;;;;;4882013;29;20045;-91
2022/12/23 02:52:12;;;;;;;107.72;59.95;;;6.00;99.90;;;;;;4829211;29;20034;-91
2022/12/23 02:54:46;;;;;;;112.78;60.65;;;5.90;99.90;;;;;;4843108;29;20047;-91
2022/12/23 02:57:18;;;;;;;108.53;61.55;;;5.90;99.90;;;;;;4884324;29;20038;-91
2022/12/23 02:59:50;;;;;;;104.30;58.90;;;5.90;99.90;;;;;;4899757;29;20502;-91
2022/12/23 03:02:18;;;;;;;103.30;59.47;;;5.90;99.90;;;;;;4884368;29;20032;-92
2022/12/23 03:04:44;;;;;;;101.63;57.42;;;6.00;99.90;;;;;;4884277;29;20088;-94
2022/12/23 03:07:25;;;;;;;99.65;55.88;;;6.00;99.90;;;;;;4884285;29;20044;-92
2022/12/23 03:10:23;;;;;;;97.00;54.50;;;6.00;99.90;;;;;;4884047;29;20033;-91
2022/12/23 03:13:22;;;;;;;96.57;54.78;;;6.00;99.90;;;;;;4884048;29;20040;-92
2022/12/23 03:16:21;;;;;;;99.30;57.00;;;6.00;99.90;;;;;;4884020;29;20037;-93
2022/12/23 03:19:06;;;;;;;97.30;53.70;;;6.00;99.90;;;;;;4883456;29;20128;-91
2022/12/23 03:21:56;;;;;;;98.47;55.40;;;6.00;99.90;;;;;;4883901;29;20052;-92
2022/12/23 03:24:46;;;;;;;98.78;52.80;;;5.90;99.90;;;;;;4883676;29;20029;-94
2022/12/23 03:27:25;;;;;;;94.25;51.53;;;6.00;99.90;;;;;;4957141;29;20082;-92
2022/12/23 03:29:56;;;;;;;88.45;49.78;;;6.00;99.90;;;;;;4956885;28;20027;-94
2022/12/23 03:32:27;;;;;;;90.90;50.67;;;6.10;99.90;;;;;;4957174;29;20031;-90
2022/12/23 03:35:00;;;;;;;89.80;49.45;;;6.10;99.90;;;;;;4957136;29;20093;-92
2022/12/23 03:37:34;;;;;;;89.75;51.10;;;6.20;99.90;;;;;;4956888;29;20122;-92
2022/12/23 03:40:07;;;;;;;87.40;48.13;;;6.20;99.90;;;;;;4956634;29;20066;-91
2022/12/23 03:42:39;;;;;;;84.78;47.97;;;6.20;99.90;;;;;;4956397;29;20051;-91
2022/12/23 03:45:20;;;;;;;87.85;49.88;;;6.20;99.90;;;;;;4956680;29;20038;-90
2022/12/23 03:47:52;;;;;;;90.57;50.22;;;6.10;99.90;;;;;;4956740;29;20181;-91
2022/12/23 03:50:21;;;;;;;89.43;50.72;;;6.00;99.90;;;;;;4956668;29;20035;-90
2022/12/23 03:52:56;;;;;;;94.53;51.75;;;5.90;99.90;;;;;;4956756;29;20054;-91
2022/12/23 03:55:37;;;;;;;90.13;48.97;;;5.90;99.90;;;;;;4956675;29;20110;-91
2022/12/23 03:58:24;;;;;;;94.05;49.22;;;5.80;99.90;;;;;;4956525;29;20027;-93
2022/12/23 04:01:04;;;;;;;83.75;45.65;;;5.90;99.90;;;;;;4956322;29;20043;-93
2022/12/23 04:03:38;;;;;;;84.78;45.00;;;6.00;99.90;;;;;;4956397;29;20448;-92
2022/12/23 04:06:11;;;;;;;78.25;43.60;;;5.90;99.90;;;;;;4956391;29;20032;-92
2022/12/23 04:08:40;;;;;;;75.68;43.53;;;5.90;99.90;;;;;;4956209;29;20121;-92
2022/12/23 04:11:07;;;;;;;82.72;45.45;;;5.90;99.90;;;;;;4956395;29;20043;-91
2022/12/23 04:13:34;;;;;;;84.85;46.60;;;5.80;99.90;;;;;;4956298;29;20031;-90
2022/12/23 04:16:01;;;;;;;73.25;41.17;;;5.80;99.90;;;;;;4956345;29;20485;-92
2022/12/23 04:18:28;;;;;;;75.57;41.33;;;5.80;99.90;;;;;;4956261;29;20024;-91
2022/12/23 04:20:55;;;;;;;77.28;42.05;;;5.60;99.90;;;;;;4940417;29;20038;-90
2022/12/23 04:23:22;;;;;;;79.45;44.25;;;5.60;99.90;;;;;;4956958;29;20066;-90
2022/12/23 04:25:48;;;;;;;83.10;44.75;;;5.50;99.90;;;;;;4956832;29;20050;-90
2022/12/23 04:28:16;;;;;;;86.28;45.22;;;5.50;99.90;;;;;;4955942;29;20027;-92
2022/12/23 04:30:43;;;;;;;84.75;44.72;;;5.50;99.90;;;;;;4955929;29;20031;-91
2022/12/23 04:33:11;;;;;;;76.93;42.38;;;5.50;99.90;;;;;;4939820;29;20070;-90
2022/12/23 04:35:38;;;;;;;88.40;45.70;;;5.40;99.90;;;;;;4935375;29;20023;-92
2022/12/23 04:38:05;;;;;;;67.97;38.72;;;5.40;99.90;;;;;;4955816;29;20027;-91
2022/12/23 04:40:31;;;;;;;70.60;39.03;;;5.40;99.90;;;;;;4955041;28;20035;-92
2022/12/23 04:42:58;;;;;;;66.65;38.55;;;5.30;99.90;;;;;;4956336;29;20054;-92
2022/12/23 04:45:24;;;;;;;75.13;43.67;;;5.20;99.90;;;;;;4939998;29;20031;-92
2022/12/23 04:47:51;;;;;;;82.70;44.58;;;5.20;99.90;;;;;;4955546;29;20155;-90
2022/12/23 04:50:17;;;;;;;76.72;42.42;;;5.20;99.90;;;;;;4955514;29;20405;-90
2022/12/23 04:52:44;;;;;;;71.20;39.80;;;5.20;99.90;;;;;;4955534;29;20157;-90
2022/12/23 04:55:11;;;;;;;86.25;43.65;;;5.20;99.90;;;;;;4939351;29;20031;-92
2022/12/23 04:57:37;;;;;;;72.07;41.53;;;5.10;99.90;;;;;;4955427;29;20110;-91
2022/12/23 05:00:08;;;;;;;71.70;39.75;;;5.10;99.90;;;;;;4955130;29;20445;-91
2022/12/23 05:02:34;;;;;;;71.38;40.33;;;5.00;99.90;;;;;;4955309;29;20023;-92
2022/12/23 05:05:01;;;;;;;83.57;43.45;;;5.00;99.90;;;;;;4955424;29;20086;-93
2022/12/23 05:07:27;;;;;;;70.45;40.00;;;5.00;99.90;;;;;;4955411;29;20110;-93
2022/12/23 05:09:54;;;;;;;84.57;43.22;;;5.00;99.90;;;;;;4955459;29;20508;-94
2022/12/23 05:12:20;;;;;;;80.45;41.97;;;5.00;99.90;;;;;;4955515;29;20027;-91
2022/12/23 05:14:47;;;;;;;82.63;43.22;;;5.00;99.90;;;;;;4955545;29;20035;-91
2022/12/23 05:17:17;;;;;;;87.55;44.85;;;5.10;99.90;;;;;;4939389;29;20031;-92
2022/12/23 05:19:46;;;;;;;78.15;42.83;;;5.10;99.90;;;;;;4955330;29;20043;-92
2022/12/23 05:22:12;;;;;;;73.75;40.55;;;5.20;99.90;;;;;;4955601;29;20028;-93
2022/12/23 05:24:39;;;;;;;78.45;39.05;;;5.20;99.90;;;;;;4955736;29;20039;-92
2022/12/23 05:27:06;;;;;;;84.35;44.10;;;5.30;99.90;;;;;;4955253;29;20114;-91
2022/12/23 05:29:32;;;;;;;82.90;42.25;;;5.40;99.90;;;;;;4955073;29;20481;-91
2022/12/23 05:31:59;;;;;;;83.90;43.00;;;5.40;99.90;;;;;;4939082;29;20070;-91
2022/12/23 05:34:25;;;;;;;80.80;41.38;;;5.40;99.90;;;;;;4955053;29;20034;-92
2022/12/23 05:36:52;;;;;;;70.55;40.17;;;5.30;99.90;;;;;;4955228;29;20370;-92
2022/12/23 05:39:19;;;;;;;70.60;38.00;;;5.20;99.90;;;;;;4955117;29;20038;-91
2022/12/23 05:41:45;;;;;;;70.97;36.58;;;5.10;99.90;;;;;;4955600;29;20051;-92
2022/12/23 05:44:12;;;;;;;69.93;37.70;;;5.10;99.90;;;;;;4955044;29;20049;-92
2022/12/23 05:46:39;;;;;;;67.68;36.45;;;5.00;99.90;;;;;;4939131;29;20073;-91
2022/12/23 05:49:05;;;;;;;62.33;35.15;;;5.00;99.90;;;;;;4938922;29;20036;-91
2022/12/23 05:51:32;;;;;;;60.03;33.85;;;4.90;99.90;;;;;;4939642;29;20032;-92
2022/12/23 05:53:58;;;;;;;67.32;35.17;;;4.90;99.90;;;;;;4959183;29;20035;-91
2022/12/23 05:56:25;;;;;;;61.35;33.20;;;4.80;99.90;;;;;;4959153;29;20027;-91
2022/12/23 05:58:52;;;;;;;60.22;32.67;;;4.80;99.90;;;;;;4944346;29;20039;-90
2022/12/23 06:01:18;;;;;;;59.33;33.40;;;4.80;99.90;;;;;;4962395;29;20031;-91
2022/12/23 06:03:45;;;;;;;62.35;34.75;;;4.80;99.90;;;;;;4944029;29;20110;-93
2022/12/23 06:06:11;;;;;;;63.42;35.58;;;4.80;99.90;;;;;;4958683;29;20031;-92
2022/12/23 06:08:38;;;;;;;62.38;34.35;;;4.80;99.90;;;;;;4958642;29;20079;-92
2022/12/23 06:11:05;;;;;;;58.80;33.80;;;4.80;99.90;;;;;;4958613;29;20031;-92
2022/12/23 06:13:32;;;;;;;67.32;35.08;;;4.80;99.90;;;;;;4942582;29;20038;-92
2022/12/23 06:15:58;;;;;;;60.20;34.60;;;4.80;99.90;;;;;;4959101;29;20058;-93
2022/12/23 06:18:25;;;;;;;63.22;37.00;;;4.80;99.90;;;;;;4959790;29;20068;-92
2022/12/23 06:20:54;;;;;;;73.00;40.08;;;4.70;99.90;;;;;;4959054;29;20039;-93
2022/12/23 06:23:21;;;;;;;72.10;39.28;;;4.70;99.90;;;;;;4958247;29;20096;-90
2022/12/23 06:25:48;;;;;;;69.32;37.25;;;4.70;99.90;;;;;;4957968;29;20378;-91
2022/12/23 06:28:17;;;;;;;69.65;39.80;;;4.70;99.90;;;;;;4958135;29;20480;-92
2022/12/23 06:30:44;;;;;;;70.38;39.22;;;4.70;99.90;;;;;;4958249;29;20031;-91
2022/12/23 06:33:11;;;;;;;68.15;38.38;;;4.80;99.90;;;;;;4958193;29;20035;-93
2022/12/23 06:35:44;;;;;;;69.32;39.60;;;4.80;99.90;;;;;;4958177;29;20079;-91
2022/12/23 06:38:14;;;;;;;71.07;40.15;;;4.80;99.90;;;;;;4957908;29;20032;-93
2022/12/23 06:40:40;;;;;;;59.65;37.03;;;4.80;99.90;;;;;;4957794;29;20050;-93
2022/12/23 06:43:09;;;;;;;69.10;38.50;;;4.80;99.90;;;;;;4957831;29;20493;-91
2022/12/23 06:45:36;;;;;;;63.15;37.67;;;4.90;99.90;;;;;;4957914;29;20042;-93
2022/12/23 06:48:02;;;;;;;61.97;35.90;;;5.10;99.90;;;;;;4941981;29;20019;-92
2022/12/23 06:50:29;;;;;;;53.47;34.30;;;5.40;99.90;;;;;;4957903;29;20094;-92
2022/12/23 06:52:56;;;;;;;57.00;33.00;;;5.80;99.90;;;;;;4958378;29;20035;-92
2022/12/23 06:55:22;;;;;;;53.83;33.15;;;6.00;99.90;;;;;;4958308;29;20032;-92
2022/12/23 06:57:49;;;;;;;55.22;33.05;;;6.30;99.90;;;;;;4957752;29;20023;-93
2022/12/23 07:00:16;;;;;;;50.22;32.28;;;6.60;99.90;;;;;;4957630;29;20575;-93
2022/12/23 07:02:43;;;;;;;52.45;34.13;;;6.80;99.90;;;;;;4957833;28;20473;-90
2022/12/23 07:05:09;;;;;;;57.50;37.13;;;7.00;99.90;;;;;;4941302;29;20032;-93
2022/12/23 07:07:39;;;;;;;53.75;34.53;;;7.30;99.90;;;;;;4957521;29;20039;-91
2022/12/23 07:10:06;;;;;;;54.47;34.83;;;7.40;99.90;;;;;;4957426;29;20493;-92
2022/12/23 07:12:36;;;;;;;55.25;37.75;;;7.70;99.90;;;;;;4958929;29;20122;-92
2022/12/23 07:15:04;;;;;;;49.35;37.42;;;8.10;99.90;;;;;;4957786;29;20464;-93
2022/12/23 07:17:31;;;;;;;52.92;36.83;;;8.20;99.90;;;;;;4957234;29;20031;-93
2022/12/23 07:19:58;;;;;;;55.03;35.25;;;8.20;99.90;;;;;;4941350;29;20043;-93
2022/12/23 07:22:25;;;;;;;48.63;35.70;;;8.30;99.90;;;;;;4958018;29;20508;-91
2022/12/23 07:24:51;;;;;;;44.13;34.83;;;8.40;99.90;;;;;;4957215;29;20031;-92
2022/12/23 07:27:21;;;;;;;51.63;38.55;;;8.70;99.90;;;;;;4957014;29;20037;-93
2022/12/23 07:29:48;;;;;;;64.93;37.88;;;8.80;99.90;;;;;;4957241;29;20117;-92
2022/12/23 07:32:14;;;;;;;52.92;36.15;;;8.90;99.90;;;;;;4957800;29;20051;-92
2022/12/23 07:34:41;;;;;;;55.70;38.47;;;9.00;99.90;;;;;;4958473;29;20027;-94
2022/12/23 07:37:08;;;;;;;55.53;38.88;;;9.20;99.90;;;;;;4959101;29;20027;-93
2022/12/23 07:39:35;;;;;;;63.35;41.20;;;9.30;99.90;;;;;;4940846;29;20036;-93
2022/12/23 07:42:02;;;;;;;49.25;37.55;;;9.20;99.90;;;;;;4957074;29;20138;-93
2022/12/23 07:44:29;;;;;;;51.22;38.00;;;9.20;99.90;;;;;;4957086;29;20086;-93
2022/12/23 07:46:55;;;;;;;50.33;37.05;;;9.20;99.90;;;;;;4956946;29;20038;-91
2022/12/23 07:49:22;;;;;;;57.80;40.55;;;9.30;99.90;;;;;;4957108;29;20032;-94
2022/12/23 07:51:49;;;;;;;62.20;41.45;;;9.30;99.90;;;;;;4956932;29;20074;-93
2022/12/23 07:54:16;;;;;;;57.83;39.10;;;9.30;99.90;;;;;;4957050;29;20042;-93
2022/12/23 07:56:42;;;;;;;55.35;37.80;;;9.20;99.90;;;;;;4957735;29;20074;-90
2022/12/23 07:59:09;;;;;;;53.50;37.03;;;9.40;99.90;;;;;;4956599;29;20038;-92
2022/12/23 08:01:38;;;;;;;51.67;36.50;;;9.50;99.90;;;;;;4956523;29;20027;-94
2022/12/23 08:04:05;;;;;;;53.55;36.85;;;9.60;99.90;;;;;;4940376;29;20027;-91
2022/12/23 08:06:35;;;;;;;50.50;36.25;;;9.90;99.90;;;;;;4942265;29;20027;-92
2022/12/23 08:09:02;;;;;;;51.28;36.75;;;10.10;99.90;;;;;;4936928;29;20092;-91
2022/12/23 08:11:29;;;;;;;52.63;37.38;;;10.10;99.90;;;;;;4942991;29;20039;-90
2022/12/23 08:13:55;;;;;;;52.55;37.85;;;10.30;99.90;;;;;;4954676;29;20030;-92
2022/12/23 08:16:22;;;;;;;52.92;37.90;;;10.50;99.90;;;;;;4936938;29;20028;-91
2022/12/23 08:18:49;;;;;;;56.70;40.28;;;10.70;99.90;;;;;;4938253;29;20031;-92
2022/12/23 08:21:18;;;;;;;52.33;37.05;;;10.80;99.90;;;;;;4936899;29;20040;-92
2022/12/23 08:23:46;;;;;;;49.17;36.42;;;11.10;99.90;;;;;;4937198;29;20110;-91
2022/12/23 08:26:18;;;;;;;53.65;38.28;;;11.30;99.90;;;;;;4936973;29;20042;-91
2022/12/23 08:28:44;;;;;;;52.97;37.33;;;11.50;99.90;;;;;;4936614;29;20516;-91
2022/12/23 08:31:15;;;;;;;56.15;39.72;;;11.60;99.90;;;;;;4944350;28;20539;-91
2022/12/23 08:33:44;;;;;;;53.15;37.80;;;11.80;99.90;;;;;;4940286;29;20081;-92
2022/12/23 08:36:17;;;;;;;53.28;36.88;;;12.00;99.90;;;;;;4932503;29;20028;-92
2022/12/23 08:38:44;;;;;;;46.83;36.10;;;12.30;99.90;;;;;;4936540;29;20035;-93
2022/12/23 08:41:14;;;;;;;54.45;38.70;;;12.50;99.90;;;;;;4941019;29;20509;-93
2022/12/23 08:43:40;;;;;;;50.53;38.42;;;12.70;99.90;;;;;;4956571;29;20126;-92
2022/12/23 08:46:10;;;;;;;46.85;35.08;;;12.80;99.90;;;;;;4939926;29;20031;-94
2022/12/23 08:48:38;;;;;;;44.58;34.65;;;12.90;99.90;;;;;;4937084;29;20031;-93
2022/12/23 08:51:08;;;;;;;50.22;38.88;;;12.80;99.90;;;;;;4936415;29;20107;-92
2022/12/23 08:53:36;;;;;;;55.35;37.85;;;12.70;99.90;;;;;;4937591;29;20046;-92
2022/12/23 08:56:05;;;;;;;49.25;36.65;;;12.50;99.90;;;;;;4915702;29;20039;-91
2022/12/23 08:58:39;;;;;;;46.38;35.75;;;12.60;99.90;;;;;;4939421;29;20058;-91
2022/12/23 09:01:08;;;;;;;51.92;35.05;;;12.70;99.90;;;;;;4939151;28;20049;-92
2022/12/23 09:03:35;;;;;;;41.35;31.95;;;12.80;99.90;;;;;;4923493;29;20511;-92
2022/12/23 09:06:11;;;;;;;43.40;33.80;;;12.90;99.90;;;;;;4939376;29;20544;-92
2022/12/23 09:08:39;;;;;;;36.53;31.88;;;13.00;99.90;;;;;;4940717;29;20139;-92
2022/12/23 09:11:18;;;;;;;38.58;31.75;;;13.20;99.90;;;;;;4923655;28;20019;-92
2022/12/23 09:13:45;;;;;;;31.65;28.23;;;13.40;99.90;;;;;;4939184;29;20039;-91
2022/12/23 09:16:12;;;;;;;35.55;29.88;;;13.60;99.90;;;;;;4923412;29;20027;-91
2022/12/23 09:18:40;;;;;;;32.63;28.92;;;13.80;99.90;;;;;;4939101;29;20031;-91
2022/12/23 09:21:13;;;;;;;33.80;28.95;;;14.00;99.90;;;;;;4923297;29;20031;-92
2022/12/23 09:23:40;;;;;;;27.50;24.70;;;14.10;99.90;;;;;;4939012;29;20033;-92
2022/12/23 09:26:09;;;;;;;25.63;23.15;;;14.20;99.90;;;;;;4922929;29;20027;-91
2022/12/23 09:28:35;;;;;;;25.80;23.13;;;14.40;99.90;;;;;;4922913;29;20042;-90
2022/12/23 09:31:09;;;;;;;25.50;23.05;;;14.40;99.90;;;;;;4923796;29;20052;-89
2022/12/23 09:33:36;;;;;;;;;;;14.50;99.90;;;;;;4939524;29;20027;-90
2022/12/23 09:36:04;;;;;;;26.10;23.48;;;14.60;99.90;;;;;;4938942;29;20283;-92
2022/12/23 09:38:31;;;;;;;25.98;23.20;;;14.60;99.90;;;;;;4923278;29;20027;-91
2022/12/23 09:41:21;;;;;;;25.33;23.10;;;14.80;99.90;;;;;;4923492;29;20069;-89
2022/12/23 09:44:21;;;;;;;26.15;23.67;;;14.90;99.90;;;;;;4938828;29;20110;-90
2022/12/23 09:46:53;;;;;;;26.30;23.92;;;15.00;99.90;;;;;;4912462;29;20118;-90
2022/12/23 09:49:22;;;;;;;26.58;24.10;;;15.20;99.90;;;;;;4923151;29;20082;-91
2022/12/23 09:51:54;;;;;;;25.98;23.50;;;15.10;99.90;;;;;;4923041;28;20123;-92
2022/12/23 09:54:30;;;;;;;25.45;22.98;;;15.00;99.90;;;;;;4923044;29;20038;-90
2022/12/23 09:57:02;;;;;;;26.90;24.00;;;14.80;99.90;;;;;;4938537;29;20038;-90
2022/12/23 09:59:48;;;;;;;25.65;23.27;;;14.80;99.90;;;;;;4938442;29;20058;-91
2022/12/23 10:02:26;;;;;;;24.00;22.02;;;14.90;99.90;;;;;;4938683;28;20041;-92
2022/12/23 10:05:27;;;;;;;23.48;21.38;;;15.20;99.90;;;;;;4938769;29;20033;-90
2022/12/23 10:08:13;;;;;;;24.83;22.52;;;15.40;99.90;;;;;;4938858;29;20126;-90
2022/12/23 10:10:55;;;;;;;21.83;20.00;;;15.50;99.90;;;;;;4938657;29;20023;-90
2022/12/23 10:13:28;;;;;;;19.98;18.20;;;15.40;99.90;;;;;;4922819;29;20503;-89
2022/12/23 10:16:02;;;;;;;19.63;17.92;;;15.50;99.90;;;;;;4942422;29;20042;-90
2022/12/23 10:18:44;;;;;;;19.40;17.77;;;15.40;99.90;;;;;;4951299;29;20102;-91
2022/12/23 10:21:24;;;;;;;21.33;19.25;;;15.40;99.90;;;;;;4919470;29;20164;-89
2022/12/23 10:23:53;;;;;;;21.55;19.33;;;15.40;99.90;;;;;;4917710;28;20127;-89
2022/12/23 10:26:23;;;;;;;20.63;18.77;;;15.30;99.90;;;;;;4938469;29;20027;-90
2022/12/23 10:29:01;;;;;;;19.75;18.02;;;15.40;99.90;;;;;;4938543;29;20050;-89
2022/12/23 10:31:44;;;;;;;19.65;17.75;;;15.50;99.90;;;;;;4938449;29;20042;-90
2022/12/23 10:34:43;;;;;;;19.67;17.90;;;15.60;99.90;;;;;;4954224;28;20143;-90
2022/12/23 10:37:30;;;;;;;20.02;18.25;;;16.00;99.90;;;;;;4921461;29;20043;-90
2022/12/23 10:40:07;;;;;;;20.33;18.60;;;16.00;99.90;;;;;;4925090;29;20039;-91
2022/12/23 10:42:45;;;;;;;20.15;18.45;;;15.90;99.90;;;;;;4952404;29;20059;-90
2022/12/23 10:45:35;;;;;;;18.75;17.25;;;15.90;99.90;;;;;;4941914;28;20443;-89
2022/12/23 10:48:16;;;;;;;20.15;18.40;;;16.10;99.90;;;;;;4934452;29;20028;-90
2022/12/23 10:50:54;;;;;;;19.40;17.90;;;16.10;99.90;;;;;;4948392;29;20134;-90
2022/12/23 10:53:50;;;;;;;19.95;18.00;;;16.10;99.90;;;;;;4938505;29;20496;-91
2022/12/23 10:56:18;;;;;;;20.63;18.73;;;15.90;99.90;;;;;;4937212;29;20044;-91
2022/12/23 10:58:54;;;;;;;20.10;18.40;;;15.80;99.90;;;;;;4947524;29;20024;-91
2022/12/23 11:01:21;;;;;;;20.30;18.50;;;15.90;99.90;;;;;;4922521;29;20040;-91
2022/12/23 11:03:58;;;;;;;19.92;18.08;;;16.00;99.90;;;;;;4945948;29;20020;-92
2022/12/23 11:06:25;;;;;;;21.08;18.02;;;16.10;99.90;;;;;;4948682;29;20040;-92
2022/12/23 11:08:52;;;;;;;19.58;17.80;;;16.30;99.90;;;;;;4941192;29;20110;-93
2022/12/23 11:11:18;;;;;;;19.88;18.08;;;16.30;99.90;;;;;;4931703;29;20024;-91
2022/12/23 11:13:47;;;;;;;19.35;17.95;;;16.40;99.90;;;;;;4948211;28;20067;-92
2022/12/23 11:16:24;;;;;;;20.08;18.58;;;16.40;99.90;;;;;;4943510;29;20023;-94
2022/12/23 11:19:04;;;;;;;20.92;19.08;;;16.30;99.90;;;;;;4953851;29;20048;-93
2022/12/23 11:21:32;;;;;;;20.55;18.85;;;16.50;99.90;;;;;;4938017;29;20047;-91
2022/12/23 11:24:20;;;;;;;21.83;19.83;;;16.50;99.90;;;;;;4938304;29;20453;-93
2022/12/23 11:27:00;;;;;;;22.13;20.00;;;16.30;99.90;;;;;;4953792;29;20031;-91
2022/12/23 11:29:45;;;;;;;23.13;20.98;;;16.30;99.90;;;;;;4954044;29;20031;-93
2022/12/23 11:32:23;;;;;;;22.40;20.23;;;16.10;99.90;;;;;;4953989;29;20028;-93
2022/12/23 11:34:50;;;;;;;22.58;20.65;;;16.10;99.90;;;;;;4953647;29;20036;-92
2022/12/23 11:37:37;;;;;;;22.65;20.65;;;16.10;99.90;;;;;;4937828;29;20122;-91
2022/12/23 11:40:19;;;;;;;24.70;22.17;;;16.00;99.90;;;;;;4953537;29;20122;-92
2022/12/23 11:42:46;;;;;;;24.05;21.80;;;15.90;99.90;;;;;;4953473;29;20059;-93
2022/12/23 11:45:24;;;;;;;22.92;20.73;;;15.80;99.90;;;;;;4937791;29;20115;-91
2022/12/23 11:47:51;;;;;;;22.65;20.48;;;15.60;99.90;;;;;;4937500;29;20100;-92
2022/12/23 11:50:34;;;;;;;24.60;21.10;;;15.40;99.90;;;;;;4937737;29;20028;-92
2022/12/23 11:53:13;;;;;;;23.02;20.58;;;15.20;99.90;;;;;;4953257;29;20036;-91
2022/12/23 11:56:03;;;;;;;24.55;21.92;;;15.20;99.90;;;;;;4937518;29;20024;-92
2022/12/23 11:58:57;;;;;;;23.52;21.23;;;15.30;99.90;;;;;;4937401;29;20404;-92
2022/12/23 12:01:25;;;;;;;22.40;20.00;;;15.30;99.90;;;;;;4914061;29;20059;-92
2022/12/23 12:04:07;;;;;;;22.20;19.60;;;15.50;99.90;;;;;;4953073;29;20031;-91
2022/12/23 12:06:35;;;;;;;24.08;20.98;;;15.60;99.90;;;;;;4937047;29;20035;-92
2022/12/23 12:09:05;;;;;;;22.17;19.90;;;15.60;99.90;;;;;;4953073;29;20082;-93
2022/12/23 12:11:39;;;;;;;21.48;19.45;;;15.70;99.90;;;;;;4937009;29;20079;-93
2022/12/23 12:14:17;;;;;;;21.60;19.70;;;15.90;99.90;;;;;;4937277;29;20036;-92
2022/12/23 12:16:50;;;;;;;20.70;18.70;;;15.90;99.90;;;;;;4937191;29;20512;-93
2022/12/23 12:19:42;;;;;;;19.75;18.10;;;15.90;99.90;;;;;;4952750;29;20067;-92
2022/12/23 12:22:28;;;;;;;20.15;18.70;;;16.00;99.90;;;;;;4952855;29;20040;-92
2022/12/23 12:24:58;;;;;;;19.45;17.95;;;15.90;99.90;;;;;;4953026;29;20054;-91
2022/12/23 12:27:34;;;;;;;20.73;19.00;;;15.90;99.90;;;;;;4936846;29;20023;-91
2022/12/23 12:30:05;;;;;;;20.95;19.15;;;15.90;99.90;;;;;;4952784;29;20023;-93
2022/12/23 12:32:42;;;;;;;19.77;18.20;;;16.00;99.90;;;;;;4952687;29;20126;-91
2022/12/23 12:35:45;;;;;;;19.60;18.13;;;15.90;99.90;;;;;;4936709;29;20123;-94
2022/12/23 12:38:17;;;;;;;19.35;17.85;;;15.90;99.90;;;;;;4909340;29;20082;-93
2022/12/23 12:41:00;;;;;;;19.63;18.10;;;16.00;99.90;;;;;;4952274;29;20079;-92
2022/12/23 12:43:39;;;;;;;19.15;17.75;;;16.10;99.90;;;;;;4936319;29;20450;-92
2022/12/23 12:46:24;;;;;;;19.17;17.67;;;16.00;99.90;;;;;;4920466;29;20031;-94
2022/12/23 12:48:58;;;;;;;18.38;16.95;;;15.90;99.90;;;;;;4920668;29;20032;-92
2022/12/23 12:51:50;;;;;;;18.48;17.15;;;15.80;99.90;;;;;;4936762;29;20088;-93
2022/12/23 12:54:34;;;;;;;18.40;17.10;;;15.90;99.90;;;;;;4905043;29;20497;-93
2022/12/23 12:57:02;;;;;;;18.48;17.25;;;15.90;99.90;;;;;;4920381;29;20035;-93
2022/12/23 12:59:36;;;;;;;18.52;17.02;;;15.90;99.90;;;;;;4904663;29;20035;-92
2022/12/23 13:02:27;;;;;;;19.60;18.00;;;16.00;99.90;;;;;;4920315;29;20031;-93
2022/12/23 13:05:11;;;;;;;19.13;17.63;;;16.10;99.90;;;;;;4920385;29;20090;-91
2022/12/23 13:08:10;;;;;;;19.95;18.02;;;16.10;99.90;;;;;;4905207;29;20036;-92
2022/12/23 13:11:13;;;;;;;19.08;17.67;;;16.00;99.90;;;;;;4909462;29;20032;-93
2022/12/23 13:13:58;;;;;;;19.48;18.05;;;15.90;99.90;;;;;;4919020;29;20031;-91
2022/12/23 13:16:33;;;;;;;19.63;18.13;;;15.80;99.90;;;;;;4904279;29;20039;-92
2022/12/23 13:19:09;;;;;;;19.38;17.98;;;15.70;99.90;;;;;;4913498;29;20038;-92
2022/12/23 13:22:02;;;;;;;21.17;19.27;;;15.70;99.90;;;;;;4923889;29;20062;-92
2022/12/23 13:24:47;;;;;;;22.13;19.85;;;15.60;99.90;;;;;;4921265;29;20430;-91
2022/12/23 13:27:17;;;;;;;19.90;18.40;;;15.60;99.90;;;;;;4920011;29;20035;-91
2022/12/23 13:30:13;;;;;;;19.05;17.55;;;15.60;99.90;;;;;;4936180;29;20035;-91